AirNav  
 
 923 users online  

OH66 Obannon Creek Aerodrome
Goshen, Ohio, USA

GOING TO GOSHEN?


FAA INFORMATION EFFECTIVE 07 DECEMBER 2017

Location

FAA Identifier: OH66
Lat/Long: 39-14-21.0100N / 084-10-27.7800W
39-14.350167N / 084-10.463000W
39.2391694 / -84.1743833
(estimated)
Elevation: 835 ft. / 255 m (estimated)
Variation: 04W (1985)
From city: 1 mile NW of GOSHEN, OH
Time zone: UTC -5 (UTC -4 during Daylight Saving Time)
Zip code: 45122

Airport Operations

Airport use: Private use. Permission required prior to landing
Activation date: 06/1973
Control tower: no
ARTCC: INDIANAPOLIS CENTER
FSS: DAYTON FLIGHT SERVICE STATION
Attendance: IREG
Wind indicator: yes
Segmented circle: no

Airport Communications

UNICOM: 122.95
WX AWOS-3 at I69 (10 nm S): 127.275 (513-732-6978)
WX AWOS-3 at I68 (14 nm N): 120.55 (513-934-5500)
WX ASOS at LUK (14 nm SW): PHONE 513-321-6291
WX ASOS at HAO (18 nm NW): 121.425 (513-863-6137)

Nearby radio navigation aids

VOR radial/distance  VOR name  Freq  Var
MXQr241/20.7MIDWEST VOR/DME112.9004W
CVGr065/28.0CINCINNATI VORTAC117.3004W
FLMr014/36.0FALMOUTH VOR/DME117.0004W
SGHr207/38.9SPRINGFIELD VOR/DME113.2004W

 
NDB name  Hdg/Dist  Freq  Var  ID
MADEIRA087/8.537904WMDE -- -.. .
CINCINNATI062/9.133504WLUK .-.. ..- -.-
SPORTYS015/9.924504WPWF .--. .-- ..-.
HOOK FIELD145/20.123904WHKF .... -.- ..-.
HILLSBORO281/29.527805WHOC .... --- -.-.
WEST UNION313/36.635904WAMT .- -- -

Airport Services

Airframe service: NONE
Powerplant service: NONE

Runway Information

Runway 7/25

Dimensions: 3200 x 60 ft. / 975 x 18 m
Surface: turf
RUNWAY 7  RUNWAY 25
Traffic pattern: rightleft

Airport Ownership and Management from official FAA records

Ownership: Privately-owned
Owner: OBANNON CREEK PROP OWNERS ASSN
1010 BLUE SKY DRIVE
GOSHEN, OH 45122
Phone (513) 720-9452
Manager: ANDREW SCHECTER
1010 BLUE SKY DRIVE
GOSHEN, OH 45122
Phone (513) 720-9452

Airport Operational Statistics

Aircraft based on the field: 7
Single engine airplanes: 5
Multi engine airplanes: 1
Helicopters: 1
    

Instrument Procedures

There are no published instrument procedures at OH66.

Some nearby airports with instrument procedures:

I69 - Clermont County Airport (10 nm S)
I68 - Warren County Airport/John Lane Field (14 nm N)
KLUK - Cincinnati Municipal Airport-Lunken Field (14 nm SW)
KHAO - Butler County Regional Airport-Hogan Field (18 nm NW)
KMWO - Middletown Regional Airport/Hook Field (20 nm NW)
 
Loc | Ops | Rwys | IFR | FBO | Links
Com | Nav | Svcs | Stats | Notes


 
Area around OH66 (Obannon Creek Aerodrome)
 
Road maps at: MapQuest Bing Google
 
Aerial photo
WARNING: Photo may not be current or correct
Aerial photo of OH66 (Obannon Creek Aerodrome)
Taken mid January 2008
looking northeast.

Do you have a better or more recent aerial photo of Obannon Creek Aerodrome that you would like to share? If so, please send us your photo.

 
Sectional chart

 
Airport distance calculator
Flying to Obannon Creek Aerodrome? Find the distance to fly.

From to OH66

Sunrise and sunset
Times for 17-Dec-2017
 Local
(UTC-5)
 Zulu
(UTC)
Morning civil twilight07:2112:21
Sunrise07:5112:51
Sunset17:1422:14
Evening civil twilight17:4422:44

Current date and time
Zulu (UTC)  17-Dec-2017 20:20:43
Local (UTC-5)  17-Dec-2017 15:20:43
 
METAR
KI69 
10nm S 
171955Z AUTO 24004KT 10SM OVC080 08/00 A3012 RMK AO2 T00771001
KLUK 
14nm SW 
171953Z 16004KT 10SM OVC075 08/01 A3012 RMK AO2 SLP202 T00830011
KHAO 
18nm NW 
171953Z AUTO 00000KT 10SM OVC085 08/00 A3011 RMK AO2 SLP201 T00780000
TAF
KLUK 
14nm SW 
171737Z 1718/1818 20005KT P6SM VCSH OVC080 FM171900 20005KT P6SM -RA OVC050 FM180200 19004KT P6SM OVC026 FM180700 21004KT P6SM -DZ OVC011 FM181000 22004KT P6SM -DZ OVC009
NOTAMs
Click for the latest NOTAMs
NOTAMs are issued by the DoD/FAA and will open in a separate window not controlled by AirNav.

 

 
 

Would you like to see your business listed on this page?

 If your business provides an interesting product or service to pilots, flight crews, aircraft, or users of the Obannon Creek Aerodrome, you should consider listing it here.  To start the listing process, click on the button below
 
Add a business
 

Other Pages about Obannon Creek Aerodrome

Update a link
 
Copyright © AirNav, LLC. All rights reserved. Privacy Policy  Contact